Keene, NH

7:45 AM EST on December 09, 2016 (GMT -0500)
Court St. | | Change Station

Elev 522 ft 42.94 °N, 72.29 °W | Updated 3 seconds ago

Clear
Clear
26.6 °F
Feels Like 27 °F
N
3.0
Wind Variable Wind from SSE

Today
High -- | Low -- °F
--% Chance of Precip.
Yesterday
High -- | Low -- °F
Precip. -- in
Pressure 29.97 in
Visibility 10.0 miles
Clouds Clear
Windchill 27 °F
Dew Point 15 °F
Humidity 63%
Rainfall 0.00 in
Snow Depth Not available.
7:08 AM 4:14 PM
Waxing Gibbous, 73% visible
METAR KEEN 091156Z AUTO 29011G15KT 10SM CLR M02/M09 A2991 RMK AO2 SNE09 SLP149 6//// 7//// T10221089 11006 21022 53025 FZRANO PNO $
Pressure 29.97 in
Visibility 10.0 miles
Clouds Clear
Windchill 27 °F
Dew Point 15 °F
Humidity 63%
Rainfall 0.00 in
Snow Depth Not available.
7:08 AM 4:14 PM
Waxing Gibbous, 73% visible
METAR KEEN 091156Z AUTO 29011G15KT 10SM CLR M02/M09 A2991 RMK AO2 SNE09 SLP149 6//// 7//// T10221089 11006 21022 53025 FZRANO PNO $

10-Day Weather Forecast

Almanac

Astronomy

Dec. 09, 2016 Rise Set
Actual Time
Civil Twilight
Nautical Twilight
Astronomical Twilight
Moon
Length of Visible Light
Length of Day
Tomorrow will be .
, % of the Moon is Illuminated

Today's Extremes

State Highs State Lows

Community

WunderPhotos

Upload Photos

1,956,407 photos uploaded!

WunderBlog® & News

Nearby

Air Quality

  Air Quality AQ Index Pollutant
Not available.

Snow Depth

Station Depth Elevation

Earthquake Activity

City Distance Mag. Time & Date
Minimum magnitude displayed is 2.5.

Coastal Water Temperatures

Place Temperature

Stations

Nearby Weather Stations

Station Location Temp. Windchill Dew Point Humidity Wind Precip. Elev Updated Type
                   

Watches & Warnings

There are currently no watches in effect.